createdAt,value
2023-03-17T00:01:20.722Z,75.61
2023-03-17T00:04:25.724Z,75.45
2023-03-17T00:07:28.832Z,74.94
2023-03-17T00:10:31.737Z,75.25
2023-03-17T00:13:36.172Z,75.24
2023-03-17T00:16:42.873Z,75.16
2023-03-17T00:19:45.572Z,74.93
2023-03-17T00:22:48.906Z,75.00
2023-03-17T00:25:54.159Z,74.78
2023-03-17T00:28:56.998Z,75.17
2023-03-17T00:32:02.105Z,74.46
2023-03-17T00:35:06.123Z,75.12
2023-03-17T00:38:14.888Z,75.09
2023-03-17T00:41:18.349Z,75.23
2023-03-17T00:44:20.981Z,74.87
2023-03-17T00:47:24.992Z,74.87
2023-03-17T00:50:29.712Z,74.61
2023-03-17T00:53:32.647Z,74.84
2023-03-17T00:56:35.300Z,74.57
2023-03-17T00:59:40.224Z,74.60
2023-03-17T01:02:44.716Z,74.50
2023-03-17T01:05:48.334Z,74.30
2023-03-17T01:08:50.996Z,74.23
2023-03-17T01:11:54.979Z,74.23
2023-03-17T01:14:58.061Z,73.93
2023-03-17T01:18:04.794Z,74.27
2023-03-17T01:21:10.496Z,74.19
2023-03-17T01:24:13.686Z,74.05
2023-03-17T01:27:16.476Z,74.19
2023-03-17T01:30:27.334Z,74.17
2023-03-17T01:33:31.702Z,74.13
2023-03-17T01:36:35.659Z,73.61
2023-03-17T01:39:38.387Z,73.71
2023-03-17T01:42:41.229Z,73.30
2023-03-17T01:46:15.217Z,73.33
2023-03-17T01:49:25.954Z,73.36
2023-03-17T01:52:30.265Z,73.58
2023-03-17T01:55:40.154Z,73.62
2023-03-17T01:58:43.027Z,73.57
2023-03-17T02:01:51.336Z,73.81
2023-03-17T02:04:56.720Z,73.42
2023-03-17T02:07:59.785Z,73.40
2023-03-17T02:11:03.408Z,73.64
2023-03-17T02:14:06.552Z,74.00
2023-03-17T02:17:09.859Z,73.80
2023-03-17T02:20:50.028Z,73.74
2023-03-17T02:24:02.032Z,73.69
2023-03-17T02:27:09.409Z,73.89
2023-03-17T02:30:16.411Z,73.88
2023-03-17T02:33:19.153Z,73.95
2023-03-17T02:36:22.977Z,73.86
2023-03-17T02:39:27.483Z,73.67
2023-03-17T02:42:30.600Z,73.78
2023-03-17T02:45:36.681Z,73.62
2023-03-17T02:48:40.574Z,73.78
2023-03-17T02:51:45.113Z,73.80
2023-03-17T02:54:49.346Z,74.20
2023-03-17T02:57:52.159Z,74.18
2023-03-17T03:00:54.934Z,74.02
2023-03-17T03:03:58.304Z,74.09
2023-03-17T03:07:00.933Z,74.34
2023-03-17T03:10:05.792Z,74.26
2023-03-17T03:13:11.006Z,74.38
2023-03-17T03:16:13.895Z,74.44
2023-03-17T03:19:19.653Z,74.50
2023-03-17T03:22:22.325Z,74.69
2023-03-17T03:25:27.024Z,75.12
2023-03-17T03:28:29.698Z,75.11
2023-03-17T03:31:32.464Z,75.34
2023-03-17T03:34:35.719Z,75.32
2023-03-17T03:37:38.548Z,75.73
2023-03-17T03:40:42.560Z,75.64
2023-03-17T03:43:48.281Z,76.17
2023-03-17T03:46:51.892Z,76.21
2023-03-17T03:49:54.604Z,76.22
2023-03-17T03:52:57.487Z,76.35
2023-03-17T03:56:04.307Z,76.31
2023-03-17T03:59:07.284Z,76.52
2023-03-17T04:02:10.328Z,77.07
2023-03-17T04:05:13.765Z,76.96
2023-03-17T04:08:16.528Z,76.98
2023-03-17T04:11:21.110Z,76.97
2023-03-17T04:14:23.784Z,76.88
2023-03-17T04:17:26.765Z,77.13
2023-03-17T04:20:29.821Z,77.26
2023-03-17T04:23:32.773Z,77.20
2023-03-17T04:26:37.133Z,77.32
2023-03-17T04:29:39.793Z,77.59
2023-03-17T04:32:42.659Z,77.62
2023-03-17T04:35:45.508Z,77.78
2023-03-17T04:38:48.955Z,77.83
2023-03-17T04:41:52.993Z,77.51
2023-03-17T04:44:57.985Z,77.72
2023-03-17T04:48:04.962Z,77.82
2023-03-17T04:51:11.895Z,78.28
2023-03-17T04:54:14.717Z,78.36
2023-03-17T04:57:22.221Z,78.87
2023-03-17T05:00:25.284Z,78.78
2023-03-17T05:03:28.528Z,79.04
2023-03-17T05:06:31.688Z,79.24
2023-03-17T05:09:36.981Z,79.41
2023-03-17T05:12:41.006Z,79.32
2023-03-17T05:15:46.170Z,79.35
2023-03-17T05:18:49.077Z,79.30
2023-03-17T05:21:54.805Z,79.41
2023-03-17T05:25:00.195Z,79.19
2023-03-17T05:28:05.270Z,79.71
2023-03-17T05:31:11.081Z,79.67
2023-03-17T05:34:14.119Z,79.93
2023-03-17T05:37:17.489Z,79.66
2023-03-17T05:40:22.524Z,79.51
2023-03-17T05:43:27.726Z,79.34
2023-03-17T05:46:36.611Z,79.55
2023-03-17T05:49:39.334Z,79.69
2023-03-17T05:52:42.040Z,79.85
2023-03-17T05:55:44.781Z,79.99
2023-03-17T05:58:54.829Z,80.15
2023-03-17T06:01:58.031Z,80.20
2023-03-17T06:05:00.982Z,80.43
2023-03-17T06:08:05.109Z,80.15
2023-03-17T06:11:10.952Z,80.20
2023-03-17T06:14:18.150Z,79.84
2023-03-17T06:17:20.859Z,79.70
2023-03-17T06:20:23.557Z,80.27
2023-03-17T06:23:26.217Z,79.94
2023-03-17T06:26:28.994Z,79.95
2023-03-17T06:29:33.508Z,79.23
2023-03-17T06:32:36.667Z,76.41
2023-03-17T06:35:39.372Z,73.51
2023-03-17T06:38:42.065Z,72.00
2023-03-17T06:41:45.025Z,70.78
2023-03-17T06:44:52.491Z,69.05
2023-03-17T06:48:02.241Z,69.13
2023-03-17T06:51:05.251Z,69.91
2023-03-17T06:54:08.777Z,68.87
2023-03-17T06:57:12.409Z,68.96
2023-03-17T07:00:20.442Z,70.22
2023-03-17T07:03:24.030Z,71.78
2023-03-17T07:06:29.695Z,72.55
2023-03-17T07:09:35.436Z,73.32
2023-03-17T07:12:40.463Z,73.89
2023-03-17T07:15:46.009Z,74.09
2023-03-17T07:18:52.044Z,74.85
2023-03-17T07:21:56.477Z,75.03
2023-03-17T07:25:01.321Z,75.23
2023-03-17T07:28:04.715Z,75.11
2023-03-17T07:31:14.081Z,74.98
2023-03-17T07:34:18.284Z,74.66
2023-03-17T07:37:21.535Z,73.80
2023-03-17T07:40:24.227Z,73.74
2023-03-17T07:43:30.093Z,73.77
2023-03-17T07:46:34.266Z,74.11
2023-03-17T07:49:41.657Z,73.88
2023-03-17T07:52:45.133Z,73.74
2023-03-17T07:55:47.819Z,73.45
2023-03-17T07:58:50.502Z,72.36
2023-03-17T08:01:54.519Z,72.85
2023-03-17T08:04:57.617Z,72.44
2023-03-17T08:08:10.693Z,72.20
2023-03-17T08:11:13.824Z,71.89
2023-03-17T08:14:16.998Z,70.92
2023-03-17T08:17:21.305Z,70.11
2023-03-17T08:20:26.226Z,70.44
2023-03-17T08:23:29.018Z,69.69
2023-03-17T08:26:32.237Z,69.82
2023-03-17T08:29:35.020Z,69.86
2023-03-17T08:32:39.084Z,68.74
2023-03-17T08:35:42.141Z,68.45
2023-03-17T08:38:46.321Z,66.70
2023-03-17T08:41:49.040Z,67.55
2023-03-17T08:44:51.925Z,66.99
2023-03-17T08:47:56.537Z,68.07
2023-03-17T08:51:06.149Z,67.45
2023-03-17T08:54:10.051Z,67.05
2023-03-17T08:57:15.605Z,65.46
2023-03-17T09:00:20.546Z,65.50
2023-03-17T09:03:28.607Z,64.75
2023-03-17T09:06:31.600Z,64.72
2023-03-17T09:09:35.539Z,62.96
2023-03-17T09:12:38.727Z,63.16
2023-03-17T09:15:41.983Z,61.97
2023-03-17T09:18:46.481Z,60.59
2023-03-17T09:21:49.142Z,59.77
2023-03-17T09:24:54.346Z,60.42
2023-03-17T09:28:00.454Z,60.51
2023-03-17T09:31:07.753Z,61.41
2023-03-17T09:34:12.433Z,61.72
2023-03-17T09:37:17.009Z,61.15
2023-03-17T09:40:21.757Z,60.19
2023-03-17T09:43:32.797Z,58.37
2023-03-17T09:46:49.491Z,59.76
2023-03-17T09:49:59.661Z,58.10
2023-03-17T09:53:05.067Z,57.07
2023-03-17T09:56:14.752Z,58.24
2023-03-17T09:59:30.361Z,55.87
2023-03-17T10:02:35.026Z,55.21
2023-03-17T10:05:39.743Z,54.58
2023-03-17T10:08:51.408Z,53.57
2023-03-17T10:12:05.502Z,53.75
2023-03-17T10:15:18.433Z,54.58
2023-03-17T10:18:27.137Z,52.31
2023-03-17T10:21:35.639Z,52.67
2023-03-17T10:24:44.345Z,51.26
2023-03-17T10:27:53.743Z,52.39
2023-03-17T10:31:02.917Z,51.65
2023-03-17T10:34:14.938Z,50.65
2023-03-17T10:37:23.497Z,49.51
2023-03-17T10:40:30.496Z,50.69
2023-03-17T10:43:41.000Z,49.41
2023-03-17T10:46:56.323Z,49.02
2023-03-17T10:50:03.288Z,48.92
2023-03-17T10:53:10.860Z,49.18
2023-03-17T10:56:25.904Z,50.10
2023-03-17T11:02:44.611Z,48.63
2023-03-17T11:06:04.534Z,48.37
2023-03-17T11:09:12.478Z,48.75
2023-03-17T11:12:27.537Z,49.47
2023-03-17T11:15:36.916Z,50.41
2023-03-17T11:18:40.891Z,49.47
2023-03-17T11:21:51.753Z,49.11
2023-03-17T11:25:05.491Z,49.43
2023-03-17T11:28:20.504Z,49.60
2023-03-17T11:31:33.116Z,49.99
2023-03-17T11:35:02.260Z,49.47
2023-03-17T11:38:28.242Z,48.85
2023-03-17T11:41:42.326Z,47.99
2023-03-17T11:45:04.430Z,48.04
2023-03-17T11:48:21.336Z,46.95
2023-03-17T11:51:30.480Z,47.48
2023-03-17T11:54:56.274Z,47.05
2023-03-17T11:58:05.204Z,46.60
2023-03-17T12:01:18.100Z,46.85
2023-03-17T12:04:26.581Z,46.56
2023-03-17T12:07:44.648Z,47.73
2023-03-17T12:10:50.510Z,47.84
2023-03-17T12:13:59.565Z,48.13
2023-03-17T12:17:16.082Z,48.16
2023-03-17T12:20:31.620Z,47.70
2023-03-17T12:23:39.854Z,47.77
2023-03-17T12:26:55.611Z,47.93
2023-03-17T12:30:03.516Z,47.97
2023-03-17T12:33:20.428Z,48.00
2023-03-17T12:36:24.133Z,47.71
2023-03-17T12:39:30.333Z,46.63
2023-03-17T12:42:38.859Z,47.64
2023-03-17T12:46:03.385Z,47.76
2023-03-17T12:49:39.690Z,47.68
2023-03-17T12:52:59.642Z,47.31
2023-03-17T12:56:11.894Z,46.27
2023-03-17T12:59:19.808Z,46.60
2023-03-17T13:02:36.372Z,47.14
2023-03-17T13:05:39.180Z,46.87
2023-03-17T13:08:43.020Z,47.27
2023-03-17T13:11:49.019Z,45.93
2023-03-17T13:14:52.914Z,47.09
2023-03-17T13:18:24.840Z,47.22
2023-03-17T13:21:28.794Z,46.49
2023-03-17T13:24:48.417Z,46.53
2023-03-17T13:27:51.076Z,45.67
2023-03-17T13:31:09.045Z,44.61
2023-03-17T13:34:18.396Z,44.92
2023-03-17T13:37:30.725Z,44.05
2023-03-17T13:40:43.548Z,44.25
2023-03-17T13:43:57.663Z,44.87
2023-03-17T13:47:25.827Z,44.41
2023-03-17T13:50:33.820Z,45.04
2023-03-17T13:53:39.507Z,45.50
2023-03-17T13:56:50.901Z,45.57
2023-03-17T14:00:17.192Z,44.45
2023-03-17T14:03:24.324Z,45.08
2023-03-17T14:06:31.506Z,44.85
2023-03-17T14:09:38.552Z,45.20
2023-03-17T14:12:46.131Z,44.86
2023-03-17T14:15:56.457Z,44.94
2023-03-17T14:19:09.723Z,43.79
2023-03-17T14:22:39.789Z,45.27
2023-03-17T14:25:44.710Z,44.80
2023-03-17T14:28:49.033Z,45.10
2023-03-17T14:31:59.947Z,45.69
2023-03-17T14:35:07.027Z,45.15
2023-03-17T14:38:20.014Z,45.24
2023-03-17T14:41:24.405Z,45.77
2023-03-17T14:44:29.460Z,46.19
2023-03-17T14:47:38.413Z,46.57
2023-03-17T14:50:51.404Z,46.97
2023-03-17T14:54:06.763Z,46.52
2023-03-17T14:57:15.729Z,47.06
2023-03-17T15:00:32.930Z,47.06
2023-03-17T15:03:39.999Z,46.47
2023-03-17T15:06:51.187Z,47.39
2023-03-17T15:10:01.962Z,47.14
2023-03-17T15:13:07.135Z,46.90
2023-03-17T15:16:19.190Z,46.99
2023-03-17T15:19:27.552Z,47.70
2023-03-17T15:22:33.352Z,46.93
2023-03-17T15:25:44.327Z,46.67
2023-03-17T15:28:48.873Z,47.18
2023-03-17T15:31:52.872Z,47.20
2023-03-17T15:35:01.972Z,47.23
2023-03-17T15:38:04.653Z,48.19
2023-03-17T15:41:08.810Z,48.05
2023-03-17T15:44:11.769Z,48.56
2023-03-17T15:47:16.903Z,49.16
2023-03-17T15:50:24.093Z,49.34
2023-03-17T15:53:27.612Z,49.29
2023-03-17T15:56:31.717Z,49.31
2023-03-17T15:59:37.404Z,50.54
2023-03-17T16:02:40.721Z,50.44
2023-03-17T16:05:44.434Z,50.08
2023-03-17T16:09:00.469Z,49.90
2023-03-17T16:12:06.403Z,50.51
2023-03-17T16:15:22.605Z,50.37
2023-03-17T16:18:38.150Z,50.71
2023-03-17T16:21:41.425Z,51.12
2023-03-17T16:24:44.660Z,51.43
2023-03-17T16:27:49.933Z,51.44
2023-03-17T16:30:55.887Z,51.78
2023-03-17T16:33:58.764Z,52.18
2023-03-17T16:37:03.100Z,53.13
2023-03-17T16:40:07.270Z,53.25
2023-03-17T16:43:25.006Z,53.53
2023-03-17T16:46:34.439Z,53.66
2023-03-17T16:49:37.622Z,53.79
2023-03-17T16:52:40.278Z,53.79
2023-03-17T16:55:43.479Z,54.57
2023-03-17T16:58:48.259Z,56.22
2023-03-17T17:01:50.968Z,56.64
2023-03-17T17:04:53.739Z,56.16
2023-03-17T17:07:58.014Z,56.15
2023-03-17T17:11:00.889Z,56.24
2023-03-17T17:14:07.043Z,56.46
2023-03-17T17:17:11.269Z,56.24
2023-03-17T17:20:16.703Z,56.56
2023-03-17T17:23:22.397Z,56.88
2023-03-17T17:26:25.570Z,57.15
2023-03-17T17:29:32.293Z,58.95
2023-03-17T17:32:35.432Z,60.37
2023-03-17T17:35:38.612Z,59.89
2023-03-17T17:38:41.309Z,59.84
2023-03-17T17:41:43.954Z,59.48
2023-03-17T17:44:48.377Z,60.16
2023-03-17T17:47:51.627Z,60.28
2023-03-17T17:50:56.259Z,60.43
2023-03-17T17:54:02.260Z,61.91
2023-03-17T17:57:08.029Z,62.97
2023-03-17T18:00:17.391Z,63.32
2023-03-17T18:03:24.367Z,63.12
2023-03-17T18:06:27.052Z,63.85
2023-03-17T18:09:31.872Z,64.17
2023-03-17T18:12:34.749Z,64.51
2023-03-17T18:15:41.873Z,64.72
2023-03-17T18:18:46.916Z,65.03
2023-03-17T18:21:49.757Z,65.20
2023-03-17T18:24:53.168Z,65.25
2023-03-17T18:27:56.317Z,65.92
2023-03-17T18:31:06.000Z,66.23
2023-03-17T18:34:12.135Z,66.83
2023-03-17T18:37:17.922Z,66.79
2023-03-17T18:40:21.949Z,67.32
2023-03-17T18:43:24.897Z,67.52
2023-03-17T18:46:28.936Z,67.80
2023-03-17T18:49:31.653Z,68.01
2023-03-17T18:52:35.768Z,68.25
2023-03-17T18:55:38.689Z,68.38
2023-03-17T18:58:41.352Z,69.19
2023-03-17T19:01:45.687Z,69.38
2023-03-17T19:04:48.402Z,69.87
2023-03-17T19:07:51.590Z,70.23
2023-03-17T19:10:54.229Z,70.64
2023-03-17T19:13:58.286Z,70.28
2023-03-17T19:17:02.298Z,70.53
2023-03-17T19:20:06.018Z,71.03
2023-03-17T19:23:08.684Z,71.61
2023-03-17T19:26:11.633Z,71.75
2023-03-17T19:29:14.454Z,71.81
2023-03-17T19:32:18.798Z,72.25
2023-03-17T19:35:22.219Z,72.22
2023-03-17T19:38:25.535Z,72.61
2023-03-17T19:41:32.249Z,72.61
2023-03-17T19:44:34.883Z,72.58
2023-03-17T19:47:38.943Z,72.79
2023-03-17T19:50:41.735Z,73.20
2023-03-17T19:53:44.405Z,73.74
2023-03-17T19:56:54.929Z,74.31
2023-03-17T19:59:57.716Z,74.92
2023-03-17T20:03:01.757Z,76.06
2023-03-17T20:06:06.428Z,76.93
2023-03-17T20:09:09.293Z,76.93
2023-03-17T20:12:12.099Z,77.29
2023-03-17T20:15:17.058Z,76.82
2023-03-17T20:18:23.016Z,76.97
2023-03-17T20:21:27.576Z,76.88
2023-03-17T20:24:31.412Z,77.02
2023-03-17T20:27:35.879Z,76.59
2023-03-17T20:30:43.759Z,76.91
2023-03-17T20:33:47.853Z,76.77
2023-03-17T20:36:51.361Z,76.74
2023-03-17T20:39:57.836Z,76.63
2023-03-17T20:43:00.934Z,77.05
2023-03-17T20:46:08.476Z,77.38
2023-03-17T20:49:13.760Z,77.32
2023-03-17T20:52:24.321Z,77.50
2023-03-17T20:55:27.437Z,77.52
2023-03-17T20:58:30.484Z,77.93
2023-03-17T21:01:35.089Z,78.00
2023-03-17T21:04:39.150Z,78.37
2023-03-17T21:07:42.272Z,78.44
2023-03-17T21:10:45.066Z,78.69
2023-03-17T21:13:48.106Z,78.69
2023-03-17T21:16:50.960Z,79.20
2023-03-17T21:19:56.642Z,79.57
2023-03-17T21:23:00.387Z,79.90
2023-03-17T21:26:03.906Z,79.80
2023-03-17T21:29:06.649Z,80.30
2023-03-17T21:32:12.544Z,81.00
2023-03-17T21:35:19.053Z,81.07
2023-03-17T21:38:29.596Z,81.12
2023-03-17T21:41:36.075Z,80.87
2023-03-17T21:44:42.088Z,80.95
2023-03-17T21:47:44.817Z,81.14
2023-03-17T21:50:50.102Z,81.00
2023-03-17T21:53:52.983Z,81.85
2023-03-17T21:56:56.429Z,82.50
2023-03-17T21:59:59.290Z,82.23
2023-03-17T22:03:02.198Z,82.19
2023-03-17T22:06:07.119Z,82.08
2023-03-17T22:09:18.200Z,82.24
2023-03-17T22:12:22.034Z,82.26
2023-03-17T22:15:25.354Z,81.92
2023-03-17T22:18:28.190Z,81.91
2023-03-17T22:21:32.228Z,82.33
2023-03-17T22:24:35.135Z,82.46
2023-03-17T22:27:37.861Z,82.22
2023-03-17T22:30:42.821Z,82.43
2023-03-17T22:33:46.207Z,82.37
2023-03-17T22:36:50.198Z,82.18
2023-03-17T22:39:53.130Z,82.32
2023-03-17T22:42:57.336Z,82.26
2023-03-17T22:46:00.356Z,82.31
2023-03-17T22:49:05.973Z,83.17
2023-03-17T22:52:10.194Z,84.23
2023-03-17T22:55:13.311Z,84.45
2023-03-17T22:58:16.186Z,84.62
2023-03-17T23:01:20.702Z,84.42
2023-03-17T23:04:27.150Z,84.58
2023-03-17T23:07:47.841Z,84.45
2023-03-17T23:10:53.552Z,84.38
2023-03-17T23:13:56.525Z,84.34
2023-03-17T23:16:59.281Z,84.19
2023-03-17T23:20:02.221Z,84.34
2023-03-17T23:23:07.018Z,84.28
2023-03-17T23:26:10.699Z,84.68
2023-03-17T23:29:13.500Z,85.09
2023-03-17T23:32:16.978Z,85.42
2023-03-17T23:35:20.445Z,85.67
2023-03-17T23:38:25.153Z,85.68
2023-03-17T23:41:27.896Z,86.26
2023-03-17T23:44:30.961Z,86.64
2023-03-17T23:47:33.906Z,86.19
2023-03-17T23:50:37.407Z,86.90
2023-03-17T23:53:41.766Z,86.89
2023-03-17T23:56:45.142Z,86.78
2023-03-17T23:59:48.009Z,86.91
